Time;durP1;ratioP1;P1;durP2;ratioP2;P2;SDS_P1;SDS_P2;PMS_P1;PMS_P2;Temp;Humidity;BMP_temperature;BMP_pressure;BME280_temperature;BME280_humidity;BME280_pressure;Samples;Min_cycle;Max_cycle;Signal;HPM_P1;HPM_P2
2022/05/01 00:00:15;;;;;;;8.25;4.35;;;5.60;99.90;;;;;;6243035;23;20020;-75
2022/05/01 00:02:44;;;;;;;5.82;3.72;;;5.60;99.90;;;;;;6242368;23;20024;-76
2022/05/01 00:05:15;;;;;;;6.50;3.70;;;5.60;99.90;;;;;;6244839;23;20438;-76
2022/05/01 00:07:43;;;;;;;7.55;4.10;;;5.50;99.90;;;;;;6242684;23;20638;-75
2022/05/01 00:10:12;;;;;;;8.93;4.30;;;5.50;99.90;;;;;;6242813;23;20129;-75
2022/05/01 00:12:45;;;;;;;6.57;3.47;;;5.50;99.90;;;;;;6242768;23;20020;-76
2022/05/01 00:15:16;;;;;;;7.32;3.92;;;5.50;99.90;;;;;;6217409;23;20130;-76
2022/05/01 00:17:50;;;;;;;7.15;3.95;;;5.40;99.90;;;;;;6243964;22;20033;-76
2022/05/01 00:20:23;;;;;;;8.05;4.10;;;5.40;99.90;;;;;;6242549;23;20075;-75
2022/05/01 00:22:51;;;;;;;7.10;3.40;;;5.40;99.90;;;;;;6218183;23;20026;-76
2022/05/01 00:25:17;;;;;;;6.50;3.65;;;5.30;99.90;;;;;;6242952;23;20028;-74
2022/05/01 00:27:57;;;;;;;6.82;4.03;;;5.30;99.90;;;;;;6243343;23;20085;-75
2022/05/01 00:31:06;;;;;;;9.95;4.22;;;5.30;99.90;;;;;;6216751;23;20786;-77
2022/05/01 00:36:36;;;;;;;9.15;4.13;;;5.20;99.90;;;;;;6221140;23;20036;-77
2022/05/01 00:39:06;;;;;;;8.48;4.35;;;5.20;99.90;;;;;;6242371;23;20456;-77
2022/05/01 00:41:38;;;;;;;7.63;3.88;;;5.10;99.90;;;;;;6243355;23;20024;-78
2022/05/01 00:44:16;;;;;;;5.72;3.47;;;5.10;99.90;;;;;;6244509;22;20484;-76
2022/05/01 00:46:53;;;;;;;7.72;4.03;;;5.10;99.90;;;;;;6242302;23;20070;-76
2022/05/01 00:49:23;;;;;;;5.50;3.30;;;5.10;99.90;;;;;;6218243;23;20135;-77
2022/05/01 00:52:26;;;;;;;6.43;3.45;;;5.00;99.90;;;;;;6268014;22;20028;-77
2022/05/01 00:54:54;;;;;;;7.35;3.60;;;5.00;99.90;;;;;;6224606;23;20016;-76
2022/05/01 00:57:25;;;;;;;5.57;2.83;;;4.90;99.90;;;;;;6242539;23;20067;-77
2022/05/01 01:00:14;;;;;;;7.15;3.55;;;4.90;99.90;;;;;;6242773;23;20380;-77
2022/05/01 01:02:47;;;;;;;5.47;3.47;;;4.90;99.90;;;;;;6135349;23;20423;-77
2022/05/01 01:05:17;;;;;;;6.22;3.33;;;4.90;99.90;;;;;;6131522;23;20033;-77
2022/05/01 01:07:43;;;;;;;7.18;4.07;;;4.90;99.90;;;;;;6156025;23;20028;-77
2022/05/01 01:10:10;;;;;;;9.75;4.28;;;4.90;99.90;;;;;;6155713;23;20021;-76
2022/05/01 01:12:54;;;;;;;9.18;4.35;;;4.90;99.90;;;;;;6131307;23;20020;-76
2022/05/01 01:15:25;;;;;;;10.00;3.80;;;4.90;99.90;;;;;;6180975;23;20025;-77
2022/05/01 01:17:54;;;;;;;6.70;4.60;;;4.90;99.90;;;;;;6155596;23;20512;-76
2022/05/01 01:20:28;;;;;;;8.98;5.60;;;4.90;99.90;;;;;;6155575;23;20028;-76
2022/05/01 01:22:56;;;;;;;11.15;6.18;;;4.90;99.90;;;;;;6155965;23;20029;-77
2022/05/01 01:25:29;;;;;;;10.30;5.63;;;5.00;99.90;;;;;;6155766;23;20023;-77
2022/05/01 01:28:02;;;;;;;12.68;7.88;;;5.10;99.90;;;;;;6198607;23;20020;-76
2022/05/01 01:36:57;;;;;;;27.30;17.73;;;5.50;99.90;;;;;;6261196;22;20034;-77
2022/05/01 01:39:29;;;;;;;31.60;18.42;;;5.60;99.90;;;;;;6248973;22;20023;-76
2022/05/01 01:41:57;;;;;;;19.23;13.25;;;5.70;99.90;;;;;;6274353;22;20031;-76
2022/05/01 01:44:23;;;;;;;25.58;15.85;;;5.80;99.90;;;;;;6246279;22;20482;-78
2022/05/01 01:46:52;;;;;;;22.17;14.02;;;5.90;99.90;;;;;;6246975;22;20336;-77
2022/05/01 01:49:22;;;;;;;24.23;15.32;;;5.90;99.90;;;;;;6247415;22;20020;-78
2022/05/01 01:51:49;;;;;;;29.90;18.30;;;6.00;99.90;;;;;;6247343;22;20390;-76
2022/05/01 01:54:24;;;;;;;29.85;18.52;;;6.10;99.90;;;;;;6246814;22;20402;-76
2022/05/01 01:56:55;;;;;;;29.40;18.35;;;6.10;99.90;;;;;;6247067;22;20034;-77
2022/05/01 01:59:29;;;;;;;29.65;16.70;;;6.20;99.90;;;;;;6274682;22;20016;-76
2022/05/01 02:01:59;;;;;;;33.35;18.65;;;6.30;99.90;;;;;;6248760;22;20316;-76
2022/05/01 02:04:26;;;;;;;24.45;15.02;;;6.40;99.90;;;;;;6273005;22;20070;-76
2022/05/01 02:06:53;;;;;;;27.90;15.55;;;6.40;99.90;;;;;;6246567;22;20023;-76
2022/05/01 02:09:22;;;;;;;24.23;14.23;;;6.50;99.90;;;;;;6221799;22;20030;-77
2022/05/01 02:11:50;;;;;;;21.92;15.45;;;6.50;99.90;;;;;;6272712;22;20125;-76
2022/05/01 02:14:24;;;;;;;22.02;14.15;;;6.40;99.90;;;;;;6273291;22;20085;-75
2022/05/01 02:17:11;;;;;;;19.30;13.40;;;6.40;99.90;;;;;;6215050;22;20034;-77
2022/05/01 02:19:38;;;;;;;19.10;12.77;;;6.40;99.90;;;;;;6166185;23;20090;-77
2022/05/01 02:22:04;;;;;;;19.80;13.07;;;6.30;99.90;;;;;;6215902;23;20102;-76
2022/05/01 02:24:49;;;;;;;16.67;11.73;;;6.20;99.90;;;;;;6239967;23;20127;-77
2022/05/01 02:27:18;;;;;;;17.88;11.82;;;6.20;99.90;;;;;;6215313;23;20024;-77
2022/05/01 02:29:58;;;;;;;23.05;12.65;;;6.10;99.90;;;;;;6216592;23;20383;-77
2022/05/01 02:32:42;;;;;;;16.10;11.43;;;6.00;99.90;;;;;;6243189;23;20527;-77
2022/05/01 02:35:10;;;;;;;16.55;10.82;;;5.90;99.90;;;;;;6218498;23;20024;-77
2022/05/01 02:37:45;;;;;;;14.98;9.48;;;5.80;99.90;;;;;;6248045;23;20048;-77
2022/05/01 02:40:11;;;;;;;17.58;8.70;;;5.80;99.90;;;;;;6219755;23;20407;-76
2022/05/01 02:42:37;;;;;;;13.18;7.90;;;5.70;99.90;;;;;;6217758;23;20062;-77
2022/05/01 02:45:06;;;;;;;12.80;8.02;;;5.60;99.90;;;;;;6220076;23;20095;-76
2022/05/01 02:47:33;;;;;;;13.93;8.55;;;5.60;99.90;;;;;;6222393;23;20031;-75
2022/05/01 02:50:03;;;;;;;13.73;8.45;;;5.50;99.90;;;;;;6248658;23;20047;-77
2022/05/01 02:52:31;;;;;;;9.85;6.15;;;5.40;99.90;;;;;;6198800;23;20063;-76
2022/05/01 02:54:58;;;;;;;12.18;7.28;;;5.40;99.90;;;;;;6242583;23;20020;-76
2022/05/01 02:57:25;;;;;;;13.95;8.63;;;5.30;99.90;;;;;;6230631;23;20553;-77
2022/05/01 02:59:54;;;;;;;12.55;8.82;;;5.20;99.90;;;;;;6216978;23;20111;-77
2022/05/01 03:02:32;;;;;;;14.33;9.07;;;5.20;99.90;;;;;;6215947;23;20020;-77
2022/05/01 03:04:58;;;;;;;14.55;9.35;;;5.10;99.90;;;;;;6242290;23;20464;-77
2022/05/01 03:07:24;;;;;;;14.65;10.05;;;5.10;99.90;;;;;;6231165;22;20054;-77
2022/05/01 03:09:58;;;;;;;13.93;9.55;;;5.10;99.90;;;;;;6248463;22;20452;-78
2022/05/01 03:12:27;;;;;;;14.07;8.73;;;5.10;99.90;;;;;;6200011;22;20028;-77
2022/05/01 03:14:57;;;;;;;15.57;8.48;;;5.00;99.90;;;;;;6273807;22;20035;-77
2022/05/01 03:17:24;;;;;;;13.50;9.38;;;5.00;99.90;;;;;;6247802;22;20095;-77
2022/05/01 03:22:36;;;;;;;16.85;10.60;;;4.90;99.90;;;;;;6252878;22;20126;-77
2022/05/01 03:25:02;;;;;;;15.20;9.95;;;4.90;99.90;;;;;;6274060;22;20525;-77
2022/05/01 03:27:30;;;;;;;13.25;9.30;;;4.90;99.90;;;;;;6274079;22;20447;-76
2022/05/01 03:30:18;;;;;;;15.63;9.45;;;4.80;99.90;;;;;;6245480;22;20034;-76
2022/05/01 03:32:45;;;;;;;18.65;11.82;;;4.80;99.90;;;;;;6248379;22;20081;-76
2022/05/01 03:35:12;;;;;;;17.42;11.35;;;4.80;99.90;;;;;;6275265;22;20036;-76
2022/05/01 03:37:40;;;;;;;15.63;11.20;;;4.80;99.90;;;;;;6247743;22;20027;-77
2022/05/01 03:40:17;;;;;;;15.75;10.70;;;4.80;99.90;;;;;;6248331;22;20030;-75
2022/05/01 03:42:43;;;;;;;16.25;11.13;;;4.80;99.90;;;;;;6247703;22;20026;-77
2022/05/01 03:45:25;;;;;;;16.38;10.75;;;4.70;99.90;;;;;;6248110;22;20020;-77
2022/05/01 03:47:52;;;;;;;17.80;10.50;;;4.70;99.90;;;;;;6224951;22;20024;-76
2022/05/01 03:50:18;;;;;;;17.50;10.75;;;4.70;99.90;;;;;;6197919;22;20080;-77
2022/05/01 03:52:54;;;;;;;14.55;10.25;;;4.60;99.90;;;;;;6222925;22;20020;-77
2022/05/01 03:55:24;;;;;;;18.27;10.90;;;4.60;99.90;;;;;;6247844;22;20015;-78
2022/05/01 03:58:05;;;;;;;17.73;11.95;;;4.60;99.90;;;;;;6246987;22;20089;-77
2022/05/01 04:00:31;;;;;;;14.07;9.30;;;4.70;99.90;;;;;;6247637;22;20059;-77
2022/05/01 04:02:57;;;;;;;14.25;9.30;;;4.60;99.90;;;;;;6222904;22;20035;-76
2022/05/01 04:05:23;;;;;;;22.63;13.63;;;4.70;99.90;;;;;;6223065;22;20392;-77
2022/05/01 04:07:49;;;;;;;18.50;11.10;;;4.70;99.90;;;;;;6247917;22;20028;-77
2022/05/01 04:10:16;;;;;;;16.98;11.00;;;4.70;99.90;;;;;;6248935;22;20032;-75
2022/05/01 04:12:46;;;;;;;22.70;12.70;;;4.60;99.90;;;;;;6248014;22;20055;-77
2022/05/01 04:15:14;;;;;;;20.23;12.73;;;4.70;99.90;;;;;;6275607;22;20029;-77
2022/05/01 04:17:48;;;;;;;17.05;11.05;;;4.70;99.90;;;;;;6247472;22;20033;-78
2022/05/01 04:20:16;;;;;;;18.17;11.00;;;4.70;99.90;;;;;;6223650;22;20432;-77
2022/05/01 04:22:50;;;;;;;15.50;10.63;;;4.60;99.90;;;;;;6222333;22;20024;-77
2022/05/01 04:25:27;;;;;;;16.48;10.98;;;4.60;99.90;;;;;;6247561;22;20027;-77
2022/05/01 04:28:01;;;;;;;19.92;12.18;;;4.60;99.90;;;;;;6222980;22;20062;-77
2022/05/01 04:30:31;;;;;;;16.97;10.17;;;4.70;99.90;;;;;;6247637;22;20024;-78
2022/05/01 04:33:06;;;;;;;15.80;10.95;;;4.70;99.90;;;;;;6247644;22;20046;-78
2022/05/01 04:35:38;;;;;;;19.40;12.00;;;4.70;99.90;;;;;;6222490;22;20019;-78
2022/05/01 04:38:28;;;;;;;21.40;12.20;;;4.70;99.90;;;;;;6222456;22;20152;-79
2022/05/01 04:41:04;;;;;;;21.17;12.52;;;4.70;99.90;;;;;;6274512;22;20026;-78
2022/05/01 04:43:33;;;;;;;22.97;12.67;;;4.70;99.90;;;;;;6223479;22;20094;-77
2022/05/01 04:45:59;;;;;;;18.58;11.65;;;4.80;99.90;;;;;;6223173;22;20023;-78
2022/05/01 04:48:31;;;;;;;21.85;13.05;;;4.90;99.90;;;;;;6274914;22;20026;-77
2022/05/01 04:51:00;;;;;;;19.48;13.02;;;4.90;99.90;;;;;;6247750;22;20359;-77
2022/05/01 04:53:33;;;;;;;20.08;11.55;;;5.00;99.90;;;;;;6274611;22;20069;-78
2022/05/01 04:57:04;;;;;;;21.27;12.20;;;5.10;99.90;;;;;;6248061;22;20071;-78
2022/05/01 04:58:47;;;;;;;20.38;12.25;;;5.20;99.90;;;;;;6275014;22;20038;-77
2022/05/01 05:01:15;;;;;;;17.50;10.63;;;5.30;99.90;;;;;;6274903;22;20045;-77
2022/05/01 05:03:42;;;;;;;20.00;13.02;;;5.40;99.90;;;;;;6273779;22;20398;-77
2022/05/01 05:06:08;;;;;;;23.20;13.73;;;5.40;99.90;;;;;;6248958;22;20016;-77
2022/05/01 05:11:21;;;;;;;23.27;13.57;;;5.60;99.90;;;;;;6273375;22;20154;-76
2022/05/01 05:13:47;;;;;;;17.17;10.55;;;5.70;99.90;;;;;;6274704;22;20085;-77
2022/05/01 05:16:14;;;;;;;13.68;9.63;;;5.70;99.90;;;;;;6246936;22;20062;-77
2022/05/01 05:18:46;;;;;;;16.08;10.90;;;5.80;99.90;;;;;;6222917;22;20023;-78
2022/05/01 05:21:15;;;;;;;14.90;9.55;;;5.80;99.90;;;;;;6274548;22;20480;-77
2022/05/01 05:23:42;;;;;;;16.17;10.40;;;5.90;99.90;;;;;;6222078;22;20049;-77
2022/05/01 05:26:10;;;;;;;13.88;9.18;;;5.90;99.90;;;;;;6247477;22;20482;-77
2022/05/01 05:28:42;;;;;;;16.27;10.63;;;5.90;99.90;;;;;;6222800;22;20050;-77
2022/05/01 05:31:08;;;;;;;19.23;10.75;;;6.00;99.90;;;;;;6247593;22;20025;-77
2022/05/01 05:33:34;;;;;;;18.73;12.45;;;6.00;99.90;;;;;;6222436;22;20047;-80
2022/05/01 05:36:00;;;;;;;18.23;12.15;;;6.10;99.90;;;;;;6222085;22;20027;-78
2022/05/01 05:38:33;;;;;;;20.30;12.40;;;6.10;99.90;;;;;;6241586;22;20105;-77
2022/05/01 05:41:15;;;;;;;18.73;11.93;;;6.20;99.90;;;;;;6241121;23;20031;-78
2022/05/01 05:43:46;;;;;;;20.33;12.93;;;6.30;99.90;;;;;;6267645;22;20059;-78
2022/05/01 05:46:11;;;;;;;18.83;12.30;;;6.40;99.90;;;;;;6243885;22;20024;-77
2022/05/01 05:48:39;;;;;;;18.88;12.77;;;6.50;99.90;;;;;;6267555;22;20115;-78
2022/05/01 05:51:07;;;;;;;21.65;14.45;;;6.60;99.90;;;;;;6244014;22;20051;-77
2022/05/01 05:53:36;;;;;;;26.40;16.02;;;6.80;99.90;;;;;;6242029;23;20031;-77
2022/05/01 05:56:05;;;;;;;23.23;15.98;;;6.90;99.90;;;;;;6241831;23;20464;-77
2022/05/01 05:58:32;;;;;;;19.50;14.15;;;7.00;99.90;;;;;;6216480;23;20024;-78
2022/05/01 06:01:03;;;;;;;21.17;13.52;;;7.20;99.90;;;;;;6241732;23;20027;-77
2022/05/01 06:03:33;;;;;;;24.77;14.63;;;7.30;99.90;;;;;;6241701;23;20024;-78
2022/05/01 06:06:03;;;;;;;19.88;14.40;;;7.40;99.90;;;;;;6243884;22;20039;-76
2022/05/01 06:08:53;;;;;;;22.20;12.90;;;7.60;99.90;;;;;;6245789;23;20019;-77
2022/05/01 06:11:19;;;;;;;21.73;13.85;;;7.80;99.90;;;;;;6242220;23;20356;-77
2022/05/01 06:13:47;;;;;;;21.42;14.30;;;7.90;99.90;;;;;;6242377;23;20027;-78
2022/05/01 06:16:13;;;;;;;17.17;12.40;;;8.00;99.90;;;;;;6242395;23;20030;-77
2022/05/01 06:18:39;;;;;;;19.77;13.75;;;8.20;99.90;;;;;;6242259;22;20059;-77
2022/05/01 06:21:04;;;;;;;18.00;12.00;;;8.40;99.90;;;;;;6243117;23;20630;-77
2022/05/01 06:23:35;;;;;;;18.85;12.75;;;8.60;99.90;;;;;;6245322;23;20056;-77
2022/05/01 06:26:07;;;;;;;17.35;12.20;;;8.70;99.90;;;;;;6241897;23;20024;-77
2022/05/01 06:28:33;;;;;;;17.20;11.43;;;8.80;99.90;;;;;;6244310;22;20024;-77
2022/05/01 06:31:02;;;;;;;19.80;12.57;;;9.00;99.90;;;;;;6244356;23;20020;-77
2022/05/01 06:33:31;;;;;;;22.50;11.70;;;9.10;99.90;;;;;;6220130;23;20028;-78
2022/05/01 06:35:57;;;;;;;19.65;12.13;;;9.20;99.90;;;;;;6221682;23;20032;-77
2022/05/01 06:38:28;;;;;;;14.90;10.98;;;9.30;99.90;;;;;;6244225;22;20082;-78
2022/05/01 06:40:54;;;;;;;18.20;10.57;;;9.40;99.90;;;;;;6247023;23;20024;-77
2022/05/01 06:43:27;;;;;;;16.38;10.05;;;9.50;99.90;;;;;;6246568;22;20086;-77
2022/05/01 06:45:54;;;;;;;15.27;9.98;;;9.60;99.90;;;;;;6246837;23;20383;-76
2022/05/01 06:48:26;;;;;;;14.38;9.13;;;9.70;99.90;;;;;;6253587;22;20055;-76
2022/05/01 06:51:06;;;;;;;14.63;9.27;;;9.70;99.90;;;;;;6252333;23;20016;-77
2022/05/01 06:53:37;;;;;;;14.18;8.32;;;9.80;99.90;;;;;;6261002;22;20028;-77
2022/05/01 06:56:12;;;;;;;12.80;7.72;;;10.00;99.90;;;;;;6260751;23;20032;-76
2022/05/01 06:58:38;;;;;;;12.30;6.70;;;10.00;99.90;;;;;;6246239;23;20024;-76
2022/05/01 07:01:08;;;;;;;12.35;6.82;;;10.00;99.90;;;;;;6241223;23;20027;-78
2022/05/01 07:03:40;;;;;;;11.93;6.00;;;10.00;99.90;;;;;;6243387;23;20031;-76
2022/05/01 07:06:06;;;;;;;11.43;7.13;;;10.10;99.90;;;;;;6241078;23;20028;-77
2022/05/01 07:08:31;;;;;;;12.18;6.80;;;10.30;99.90;;;;;;6241026;23;20024;-76
2022/05/01 07:11:02;;;;;;;8.32;5.32;;;10.40;99.90;;;;;;6241269;23;20099;-76
2022/05/01 07:13:27;;;;;;;7.88;5.47;;;10.50;99.90;;;;;;6216714;23;20435;-78
2022/05/01 07:15:53;;;;;;;8.57;4.65;;;10.60;99.90;;;;;;6241213;23;20066;-78
2022/05/01 07:18:27;;;;;;;9.50;5.85;;;10.70;99.90;;;;;;6241590;23;20023;-76
2022/05/01 07:20:54;;;;;;;10.32;6.13;;;10.70;99.90;;;;;;6243052;23;20027;-77
2022/05/01 07:23:22;;;;;;;10.60;4.57;;;10.80;99.90;;;;;;6217279;23;20063;-77
2022/05/01 07:25:57;;;;;;;9.90;6.10;;;10.70;99.90;;;;;;6243513;23;20202;-77
2022/05/01 07:28:27;;;;;;;11.23;5.97;;;10.70;99.90;;;;;;6244663;22;20028;-76
2022/05/01 07:30:52;;;;;;;8.88;5.40;;;10.80;99.90;;;;;;6217813;23;20030;-77
2022/05/01 07:33:19;;;;;;;7.30;4.55;;;10.90;99.90;;;;;;6243026;23;20464;-77
2022/05/01 07:35:53;;;;;;;8.68;3.75;;;11.10;99.90;;;;;;6244751;23;20024;-76
2022/05/01 07:38:21;;;;;;;8.13;3.42;;;11.40;99.90;;;;;;6242522;22;20511;-76
2022/05/01 07:40:54;;;;;;;7.05;4.05;;;11.50;99.90;;;;;;6242843;23;20062;-77
2022/05/01 07:43:29;;;;;;;6.80;3.75;;;11.60;99.90;;;;;;6244954;22;20035;-77
2022/05/01 07:45:55;;;;;;;7.85;4.05;;;11.40;99.90;;;;;;6242676;23;20024;-76
2022/05/01 07:48:21;;;;;;;6.65;4.35;;;11.40;99.90;;;;;;6242478;23;20476;-77
2022/05/01 07:50:50;;;;;;;6.90;3.92;;;11.70;99.90;;;;;;6244013;22;20360;-76
2022/05/01 07:53:19;;;;;;;5.97;4.07;;;11.90;99.90;;;;;;6242682;23;20460;-77
2022/05/01 07:55:48;;;;;;;7.05;4.07;;;12.10;99.90;;;;;;6217868;23;20028;-77
2022/05/01 07:58:20;;;;;;;7.40;3.55;;;12.10;99.90;;;;;;6243557;22;20383;-77
2022/05/01 08:00:54;;;;;;;6.63;2.92;;;11.90;99.90;;;;;;6242751;23;20020;-78
2022/05/01 08:06:08;;;;;;;6.65;3.33;;;11.90;99.90;;;;;;6244560;23;20032;-77
2022/05/01 08:08:39;;;;;;;7.90;3.88;;;11.90;99.90;;;;;;6244098;22;20020;-76
2022/05/01 08:11:13;;;;;;;6.63;3.55;;;11.90;99.90;;;;;;6243285;23;20020;-77
2022/05/01 08:13:40;;;;;;;5.85;3.20;;;11.80;99.90;;;;;;6242611;23;20102;-76
2022/05/01 08:16:07;;;;;;;6.07;3.20;;;11.80;99.90;;;;;;6242756;22;20097;-77
2022/05/01 08:21:21;;;;;;;7.32;2.92;;;11.90;99.90;;;;;;6244094;23;20024;-76
2022/05/01 08:23:49;;;;;;;5.35;3.10;;;12.10;99.90;;;;;;6242572;23;20103;-77
2022/05/01 08:26:31;;;;;;;4.13;2.17;;;12.20;99.90;;;;;;6242697;23;20024;-77
2022/05/01 08:29:10;;;;;;;4.90;2.65;;;12.30;99.90;;;;;;6244548;22;20060;-77
2022/05/01 08:31:36;;;;;;;5.07;2.40;;;12.40;99.90;;;;;;6268733;22;20031;-77
2022/05/01 08:34:11;;;;;;;8.30;2.95;;;12.40;99.90;;;;;;6245404;23;20058;-78
2022/05/01 08:36:38;;;;;;;6.35;2.80;;;12.30;99.90;;;;;;6242964;23;20031;-77
2022/05/01 08:39:04;;;;;;;8.02;2.45;;;12.50;99.90;;;;;;6242609;22;20048;-77
2022/05/01 08:41:32;;;;;;;8.02;2.42;;;12.30;99.70;;;;;;6243017;23;20024;-79
2022/05/01 08:44:00;;;;;;;6.75;3.03;;;12.40;99.90;;;;;;6242767;23;20077;-78
2022/05/01 08:47:20;;;;;;;6.18;2.53;;;12.70;99.50;;;;;;6242650;23;20027;-77
2022/05/01 08:49:53;;;;;;;6.25;2.80;;;12.80;99.40;;;;;;6097042;23;20120;-77
2022/05/01 08:52:21;;;;;;;8.95;2.40;;;13.10;99.40;;;;;;6072916;23;20425;-76
2022/05/01 08:54:48;;;;;;;3.70;2.20;;;13.50;98.60;;;;;;6121915;23;20378;-77
2022/05/01 08:57:21;;;;;;;5.13;2.10;;;13.70;97.60;;;;;;6073589;23;20124;-76
2022/05/01 08:59:57;;;;;;;7.32;2.38;;;13.80;97.30;;;;;;6097746;23;20099;-76
2022/05/01 09:02:23;;;;;;;5.13;1.90;;;14.00;96.90;;;;;;6120466;23;20093;-76
2022/05/01 09:05:06;;;;;;;5.18;2.10;;;14.30;96.60;;;;;;6097542;23;20033;-76
2022/05/01 09:07:35;;;;;;;3.67;2.15;;;14.40;95.90;;;;;;6076066;23;20029;-76
2022/05/01 09:10:01;;;;;;;8.38;2.67;;;14.20;95.80;;;;;;6096735;23;20433;-75
2022/05/01 09:15:25;;;;;;;7.40;2.30;;;14.20;95.40;;;;;;6121395;23;20022;-76
2022/05/01 09:18:14;;;;;;;6.00;2.38;;;14.40;95.70;;;;;;6073177;23;20037;-77
2022/05/01 09:21:03;;;;;;;5.93;2.38;;;14.50;94.60;;;;;;6096244;23;20101;-76
2022/05/01 09:23:45;;;;;;;5.05;2.47;;;14.30;95.20;;;;;;6096751;23;20399;-75
2022/05/01 09:26:18;;;;;;;5.78;3.13;;;14.30;95.00;;;;;;6223175;23;20063;-76
2022/05/01 09:28:47;;;;;;;4.90;2.45;;;14.50;95.30;;;;;;6241841;23;20111;-76
2022/05/01 09:31:24;;;;;;;8.23;2.75;;;14.60;94.50;;;;;;6241816;23;20024;-77
2022/05/01 09:34:09;;;;;;;4.47;2.08;;;14.70;94.60;;;;;;6242075;23;20016;-77
2022/05/01 09:36:39;;;;;;;6.22;2.42;;;14.70;94.30;;;;;;6241592;23;20720;-78
2022/05/01 09:39:08;;;;;;;4.65;2.13;;;14.90;94.90;;;;;;6216078;23;20089;-76
2022/05/01 09:41:42;;;;;;;5.18;1.83;;;14.90;94.80;;;;;;6244043;23;20515;-76
2022/05/01 09:44:19;;;;;;;4.40;2.10;;;14.90;93.90;;;;;;6243952;22;20016;-76
2022/05/01 09:46:51;;;;;;;4.15;2.20;;;14.70;94.50;;;;;;6242173;23;20036;-77
2022/05/01 09:49:18;;;;;;;5.88;2.10;;;14.90;94.80;;;;;;6242654;23;20067;-78
2022/05/01 09:51:56;;;;;;;4.13;1.75;;;14.90;94.40;;;;;;6244627;22;20012;-77
2022/05/01 09:55:03;;;;;;;4.22;1.85;;;14.70;93.60;;;;;;6242189;22;20078;-76
2022/05/01 09:57:39;;;;;;;5.03;1.92;;;14.90;94.10;;;;;;6243408;22;20413;-77
2022/05/01 10:00:40;;;;;;;5.10;1.88;;;15.10;94.50;;;;;;6241989;23;20024;-77
2022/05/01 10:03:19;;;;;;;4.57;2.03;;;15.00;93.80;;;;;;6241571;23;20060;-76
2022/05/01 10:05:49;;;;;;;3.92;1.80;;;15.20;92.80;;;;;;6241651;23;20046;-77
2022/05/01 10:08:20;;;;;;;4.38;2.10;;;15.20;93.60;;;;;;6191397;23;20024;-77
2022/05/01 10:10:51;;;;;;;6.50;2.10;;;15.30;93.20;;;;;;6243725;22;20337;-77
2022/05/01 10:13:28;;;;;;;3.17;1.77;;;15.40;93.40;;;;;;6242745;22;20027;-78
2022/05/01 10:16:03;;;;;;;4.80;2.08;;;15.60;92.80;;;;;;6243556;22;20024;-78
2022/05/01 10:18:31;;;;;;;9.00;1.90;;;15.60;92.80;;;;;;6241313;23;20075;-77
2022/05/01 10:21:02;;;;;;;4.90;2.58;;;15.70;92.50;;;;;;6242954;22;20031;-79
2022/05/01 10:23:31;;;;;;;4.38;2.03;;;16.00;92.10;;;;;;6241606;23;20031;-76
2022/05/01 10:26:21;;;;;;;4.53;1.92;;;16.30;91.60;;;;;;6241303;23;20030;-77
2022/05/01 10:29:23;;;;;;;7.35;1.55;;;16.60;90.10;;;;;;6241527;23;20036;-78
2022/05/01 10:32:21;;;;;;;4.15;1.63;;;17.00;89.10;;;;;;6242886;23;20020;-76
2022/05/01 10:35:10;;;;;;;4.90;1.55;;;16.70;82.60;;;;;;6182292;23;20028;-77
2022/05/01 10:38:11;;;;;;;3.70;1.40;;;16.90;87.70;;;;;;6242750;22;20070;-75
2022/05/01 10:41:11;;;;;;;4.43;1.77;;;17.00;85.10;;;;;;6273834;22;20028;-76
2022/05/01 10:43:52;;;;;;;4.05;1.63;;;17.10;86.30;;;;;;6246451;22;20019;-76
2022/05/01 10:50:13;;;;;;;4.55;1.60;;;17.10;80.90;;;;;;6273679;22;20403;-76
2022/05/01 10:53:17;;;;;;;7.20;2.03;;;16.90;85.20;;;;;;6246352;22;20030;-77
2022/05/01 10:56:08;;;;;;;4.45;1.40;;;16.90;84.70;;;;;;6248146;22;20042;-77
2022/05/01 10:58:34;;;;;;;5.20;1.60;;;17.30;86.00;;;;;;6248722;22;20408;-77
2022/05/01 11:01:53;;;;;;;5.25;2.00;;;17.50;85.00;;;;;;6247297;22;20020;-76
2022/05/01 11:04:22;;;;;;;2.85;1.40;;;17.90;82.30;;;;;;6248629;22;20024;-77
2022/05/01 11:06:54;;;;;;;4.97;1.70;;;18.20;84.60;;;;;;6224127;22;20427;-77
2022/05/01 11:09:26;;;;;;;4.32;1.95;;;18.40;79.10;;;;;;6276839;22;20043;-77
2022/05/01 11:11:57;;;;;;;3.20;1.70;;;18.70;74.90;;;;;;6276894;22;20027;-78
2022/05/01 11:14:55;;;;;;;4.03;2.10;;;18.50;69.90;;;;;;6281853;22;20067;-76
2022/05/01 11:21:38;;;;;;;3.47;1.80;;;18.90;71.20;;;;;;6275938;22;20382;-78
2022/05/01 11:24:43;;;;;;;4.78;1.90;;;19.50;67.70;;;;;;6252964;22;20019;-77
2022/05/01 11:27:16;;;;;;;4.00;1.80;;;19.70;65.90;;;;;;6224109;22;20031;-77
2022/05/01 11:30:13;;;;;;;3.85;1.50;;;19.90;65.50;;;;;;6272681;22;20026;-77
2022/05/01 11:33:00;;;;;;;6.47;1.90;;;19.90;63.10;;;;;;6275495;22;20058;-77
2022/05/01 11:36:00;;;;;;;5.53;1.73;;;19.90;57.10;;;;;;6247860;22;20042;-76
2022/05/01 11:38:50;;;;;;;3.63;1.95;;;19.80;58.80;;;;;;6263843;22;20460;-75
2022/05/01 11:41:45;;;;;;;5.38;2.25;;;19.40;59.30;;;;;;6248097;22;20495;-76
2022/05/01 11:44:20;;;;;;;7.10;2.72;;;19.40;57.50;;;;;;6236852;22;20024;-77
2022/05/01 11:46:48;;;;;;;4.60;1.92;;;19.30;59.30;;;;;;6247800;22;20023;-76
2022/05/01 11:49:19;;;;;;;3.53;1.85;;;19.50;59.30;;;;;;6196859;22;20104;-77
2022/05/01 11:51:47;;;;;;;7.03;2.40;;;19.50;60.70;;;;;;6222613;22;20019;-77
2022/05/01 11:54:18;;;;;;;5.63;2.00;;;19.60;58.20;;;;;;6275688;22;20035;-76
2022/05/01 12:02:25;;;;;;;4.32;2.15;;;20.30;57.10;;;;;;6275587;22;20317;-77
2022/05/01 12:04:57;;;;;;;6.32;2.15;;;20.40;56.20;;;;;;6247698;22;20024;-77
2022/05/01 12:07:23;;;;;;;4.25;2.00;;;20.50;56.80;;;;;;6275678;22;20056;-78
2022/05/01 12:09:53;;;;;;;4.30;1.35;;;20.30;56.50;;;;;;6248571;22;20102;-80
2022/05/01 12:12:27;;;;;;;3.38;1.70;;;20.20;57.10;;;;;;6248595;22;20019;-77
2022/05/01 12:15:02;;;;;;;3.75;1.60;;;20.30;57.80;;;;;;6251485;22;20023;-77
2022/05/01 12:17:32;;;;;;;3.00;1.48;;;20.40;58.10;;;;;;6248002;22;20030;-77
2022/05/01 12:20:02;;;;;;;2.97;1.40;;;20.50;57.50;;;;;;6248514;22;20020;-78
2022/05/01 12:22:37;;;;;;;3.10;1.60;;;20.50;57.60;;;;;;6246754;22;20024;-78
2022/05/01 12:25:14;;;;;;;5.72;1.33;;;20.50;56.10;;;;;;6223489;22;20055;-77
2022/05/01 12:27:57;;;;;;;6.35;2.05;;;20.50;56.60;;;;;;6243953;22;20016;-78
2022/05/01 12:30:34;;;;;;;4.60;1.70;;;20.50;57.50;;;;;;6247919;22;20039;-79
2022/05/01 12:33:03;;;;;;;4.45;2.22;;;20.40;56.20;;;;;;6274310;22;20451;-79
2022/05/01 12:35:51;;;;;;;3.30;1.30;;;20.40;56.30;;;;;;6275207;22;20023;-78
2022/05/01 12:38:17;;;;;;;3.33;1.30;;;20.70;55.40;;;;;;6246476;22;20107;-79
2022/05/01 12:46:30;;;;;;;4.60;1.70;;;20.90;53.80;;;;;;6273484;22;20367;-78
2022/05/01 12:49:29;;;;;;;5.82;1.92;;;21.20;54.20;;;;;;6222776;22;20026;-80
2022/05/01 12:51:55;;;;;;;5.65;2.42;;;21.60;52.80;;;;;;6155752;23;20060;-80
2022/05/01 12:54:24;;;;;;;3.58;1.40;;;21.70;52.90;;;;;;6131250;23;20086;-77
2022/05/01 12:56:55;;;;;;;4.57;1.50;;;21.70;52.20;;;;;;6160547;23;20052;-80
2022/05/01 12:59:27;;;;;;;4.22;1.70;;;21.60;51.50;;;;;;6156912;23;20025;-78
2022/05/01 13:02:01;;;;;;;4.13;1.60;;;21.40;51.10;;;;;;6157058;23;20539;-79
2022/05/01 13:04:41;;;;;;;3.33;1.42;;;21.70;51.70;;;;;;6155669;23;20079;-77
2022/05/01 13:07:07;;;;;;;2.85;1.48;;;22.10;51.10;;;;;;6179475;23;20370;-79
2022/05/01 13:09:51;;;;;;;5.30;2.00;;;22.00;49.90;;;;;;6180798;23;20036;-79
2022/05/01 13:12:34;;;;;;;3.70;1.45;;;21.70;49.00;;;;;;6180533;23;20043;-77
2022/05/01 13:15:04;;;;;;;2.90;1.30;;;22.10;50.80;;;;;;6155700;23;20033;-78
2022/05/01 13:17:32;;;;;;;6.35;1.45;;;22.20;49.70;;;;;;6131712;23;20479;-79
2022/05/01 13:20:02;;;;;;;3.38;1.30;;;22.60;50.00;;;;;;6156703;23;20397;-78
2022/05/01 13:22:29;;;;;;;5.35;1.40;;;23.30;49.10;;;;;;6131211;23;20083;-78
2022/05/01 13:24:57;;;;;;;3.95;2.00;;;23.60;47.70;;;;;;6180452;23;20350;-79
2022/05/01 13:27:24;;;;;;;3.33;1.40;;;24.00;46.20;;;;;;6156813;23;20032;-80
2022/05/01 13:29:52;;;;;;;5.97;1.70;;;24.20;46.80;;;;;;6134214;23;20028;-78
2022/05/01 13:32:23;;;;;;;2.72;1.38;;;24.80;44.70;;;;;;6159693;23;20036;-80
2022/05/01 13:34:51;;;;;;;3.03;1.33;;;24.80;44.10;;;;;;6173787;22;20023;-76
2022/05/01 13:37:21;;;;;;;3.88;1.40;;;24.90;43.70;;;;;;6273354;22;20031;-79
2022/05/01 13:45:24;;;;;;;3.58;1.25;;;25.20;42.40;;;;;;6252674;22;20035;-78
2022/05/01 13:47:53;;;;;;;3.63;1.27;;;26.10;41.70;;;;;;6274193;22;20067;-78
2022/05/01 13:50:20;;;;;;;4.05;1.45;;;26.40;40.60;;;;;;6248545;22;20507;-79
2022/05/01 13:52:51;;;;;;;3.50;1.20;;;26.50;40.50;;;;;;6248170;22;20019;-78
2022/05/01 13:55:18;;;;;;;3.25;1.48;;;27.10;40.20;;;;;;6250697;22;20367;-77
2022/05/01 13:57:45;;;;;;;7.10;1.75;;;27.60;39.40;;;;;;6252995;22;20023;-82
2022/05/01 14:00:13;;;;;;;3.35;1.25;;;27.90;38.80;;;;;;6232720;22;20020;-80
2022/05/01 14:02:49;;;;;;;4.60;1.17;;;27.90;38.10;;;;;;6281201;22;20026;-78